sensor_id;sensor_type;location;lat;lon;timestamp;temperature;humidity
43991;DHT22;29654;50.784;20.604;2022-11-20T00:01:54;0.80;54.30
43991;DHT22;29654;50.784;20.604;2022-11-20T00:06:57;0.80;54.30
43991;DHT22;29654;50.784;20.604;2022-11-20T00:12:02;0.80;54.30
43991;DHT22;29654;50.784;20.604;2022-11-20T00:17:05;0.80;54.90
43991;DHT22;29654;50.784;20.604;2022-11-20T00:22:09;0.70;54.20
43991;DHT22;29654;50.784;20.604;2022-11-20T00:27:14;0.70;54.30
43991;DHT22;29654;50.784;20.604;2022-11-20T00:32:17;0.70;54.20
43991;DHT22;29654;50.784;20.604;2022-11-20T00:37:21;0.60;54.20
43991;DHT22;29654;50.784;20.604;2022-11-20T00:42:28;0.60;54.20
43991;DHT22;29654;50.784;20.604;2022-11-20T00:47:34;0.60;54.20
43991;DHT22;29654;50.784;20.604;2022-11-20T00:52:37;0.50;54.10
43991;DHT22;29654;50.784;20.604;2022-11-20T00:57:43;0.50;54.10
43991;DHT22;29654;50.784;20.604;2022-11-20T01:02:46;0.50;54.20
43991;DHT22;29654;50.784;20.604;2022-11-20T01:07:50;0.40;54.10
43991;DHT22;29654;50.784;20.604;2022-11-20T01:12:56;0.40;54.00
43991;DHT22;29654;50.784;20.604;2022-11-20T01:18:14;0.30;54.10
43991;DHT22;29654;50.784;20.604;2022-11-20T01:23:16;0.30;54.20
43991;DHT22;29654;50.784;20.604;2022-11-20T01:28:21;0.30;54.30
43991;DHT22;29654;50.784;20.604;2022-11-20T01:33:25;0.30;54.30
43991;DHT22;29654;50.784;20.604;2022-11-20T01:38:30;0.30;54.20
43991;DHT22;29654;50.784;20.604;2022-11-20T01:43:37;0.30;54.30
43991;DHT22;29654;50.784;20.604;2022-11-20T01:48:45;0.20;54.20
43991;DHT22;29654;50.784;20.604;2022-11-20T01:53:55;0.20;54.20
43991;DHT22;29654;50.784;20.604;2022-11-20T01:59:05;0.20;54.20
43991;DHT22;29654;50.784;20.604;2022-11-20T02:04:12;0.20;54.20
43991;DHT22;29654;50.784;20.604;2022-11-20T02:09:16;0.20;54.20
43991;DHT22;29654;50.784;20.604;2022-11-20T02:14:21;0.10;54.10
43991;DHT22;29654;50.784;20.604;2022-11-20T02:19:30;0.10;54.10
43991;DHT22;29654;50.784;20.604;2022-11-20T02:24:35;0.10;54.00
43991;DHT22;29654;50.784;20.604;2022-11-20T02:29:40;0.10;54.10
43991;DHT22;29654;50.784;20.604;2022-11-20T02:34:46;0.00;54.10
43991;DHT22;29654;50.784;20.604;2022-11-20T02:39:51;0.00;54.20
43991;DHT22;29654;50.784;20.604;2022-11-20T02:44:54;0.10;54.10
43991;DHT22;29654;50.784;20.604;2022-11-20T02:49:57;0.00;54.20
43991;DHT22;29654;50.784;20.604;2022-11-20T02:55:01;0.10;54.50
43991;DHT22;29654;50.784;20.604;2022-11-20T03:00:05;0.10;54.50
43991;DHT22;29654;50.784;20.604;2022-11-20T03:05:09;0.10;54.60
43991;DHT22;29654;50.784;20.604;2022-11-20T03:10:13;0.20;54.60
43991;DHT22;29654;50.784;20.604;2022-11-20T03:15:16;0.20;54.60
43991;DHT22;29654;50.784;20.604;2022-11-20T03:20:19;0.30;54.70
43991;DHT22;29654;50.784;20.604;2022-11-20T03:25:23;0.30;54.70
43991;DHT22;29654;50.784;20.604;2022-11-20T03:30:26;0.30;54.60
43991;DHT22;29654;50.784;20.604;2022-11-20T03:35:28;0.20;54.60
43991;DHT22;29654;50.784;20.604;2022-11-20T03:40:33;0.40;55.40
43991;DHT22;29654;50.784;20.604;2022-11-20T03:45:36;0.50;54.90
43991;DHT22;29654;50.784;20.604;2022-11-20T03:50:39;0.60;55.00
43991;DHT22;29654;50.784;20.604;2022-11-20T03:55:43;0.70;55.20
43991;DHT22;29654;50.784;20.604;2022-11-20T04:00:46;0.80;55.30
43991;DHT22;29654;50.784;20.604;2022-11-20T04:05:49;0.90;55.30
43991;DHT22;29654;50.784;20.604;2022-11-20T04:10:53;1.00;55.30
43991;DHT22;29654;50.784;20.604;2022-11-20T04:15:57;1.10;55.40
43991;DHT22;29654;50.784;20.604;2022-11-20T04:21:00;1.20;55.40
43991;DHT22;29654;50.784;20.604;2022-11-20T04:26:06;1.40;55.40
43991;DHT22;29654;50.784;20.604;2022-11-20T04:31:12;1.50;55.50
43991;DHT22;29654;50.784;20.604;2022-11-20T04:36:16;1.60;55.40
43991;DHT22;29654;50.784;20.604;2022-11-20T04:41:23;1.70;55.40
43991;DHT22;29654;50.784;20.604;2022-11-20T04:46:27;1.70;55.60
43991;DHT22;29654;50.784;20.604;2022-11-20T04:51:31;1.80;55.60
43991;DHT22;29654;50.784;20.604;2022-11-20T04:56:35;1.80;55.60
43991;DHT22;29654;50.784;20.604;2022-11-20T05:01:38;1.90;55.70
43991;DHT22;29654;50.784;20.604;2022-11-20T05:06:40;2.00;55.70
43991;DHT22;29654;50.784;20.604;2022-11-20T05:11:45;2.10;55.50
43991;DHT22;29654;50.784;20.604;2022-11-20T05:16:48;2.10;55.60
43991;DHT22;29654;50.784;20.604;2022-11-20T05:21:50;2.20;55.60
43991;DHT22;29654;50.784;20.604;2022-11-20T05:26:55;2.10;55.40
43991;DHT22;29654;50.784;20.604;2022-11-20T05:31:58;2.10;55.50
43991;DHT22;29654;50.784;20.604;2022-11-20T05:37:01;2.10;55.30
43991;DHT22;29654;50.784;20.604;2022-11-20T05:42:06;2.00;55.60
43991;DHT22;29654;50.784;20.604;2022-11-20T05:47:25;1.90;55.60
43991;DHT22;29654;50.784;20.604;2022-11-20T05:52:29;1.90;55.90
43991;DHT22;29654;50.784;20.604;2022-11-20T05:57:33;1.90;56.00
43991;DHT22;29654;50.784;20.604;2022-11-20T06:02:36;1.90;56.10
43991;DHT22;29654;50.784;20.604;2022-11-20T06:07:39;1.90;55.90
43991;DHT22;29654;50.784;20.604;2022-11-20T06:12:43;1.80;55.90
43991;DHT22;29654;50.784;20.604;2022-11-20T06:17:46;1.80;56.00
43991;DHT22;29654;50.784;20.604;2022-11-20T06:22:49;1.80;55.80
43991;DHT22;29654;50.784;20.604;2022-11-20T06:27:53;1.70;55.80
43991;DHT22;29654;50.784;20.604;2022-11-20T06:32:55;1.70;55.90
43991;DHT22;29654;50.784;20.604;2022-11-20T06:37:58;1.60;55.90
43991;DHT22;29654;50.784;20.604;2022-11-20T06:43:04;1.60;56.00
43991;DHT22;29654;50.784;20.604;2022-11-20T06:48:07;1.60;56.00
43991;DHT22;29654;50.784;20.604;2022-11-20T06:53:10;1.60;56.20
43991;DHT22;29654;50.784;20.604;2022-11-20T06:58:16;1.60;56.20
43991;DHT22;29654;50.784;20.604;2022-11-20T07:03:19;1.60;56.40
43991;DHT22;29654;50.784;20.604;2022-11-20T07:08:22;1.60;56.30
43991;DHT22;29654;50.784;20.604;2022-11-20T07:13:27;1.70;56.50
43991;DHT22;29654;50.784;20.604;2022-11-20T07:18:30;1.70;56.50
43991;DHT22;29654;50.784;20.604;2022-11-20T07:23:34;1.70;56.60
43991;DHT22;29654;50.784;20.604;2022-11-20T07:28:38;1.80;56.70
43991;DHT22;29654;50.784;20.604;2022-11-20T07:33:41;1.90;56.70
43991;DHT22;29654;50.784;20.604;2022-11-20T07:38:44;2.00;56.60
43991;DHT22;29654;50.784;20.604;2022-11-20T07:43:48;2.10;56.80
43991;DHT22;29654;50.784;20.604;2022-11-20T07:48:51;2.20;56.80
43991;DHT22;29654;50.784;20.604;2022-11-20T07:53:54;2.30;56.80
43991;DHT22;29654;50.784;20.604;2022-11-20T07:58:58;2.40;56.70
43991;DHT22;29654;50.784;20.604;2022-11-20T08:04:01;2.50;56.70
43991;DHT22;29654;50.784;20.604;2022-11-20T08:09:04;2.60;56.50
43991;DHT22;29654;50.784;20.604;2022-11-20T08:14:08;2.70;56.60
43991;DHT22;29654;50.784;20.604;2022-11-20T08:19:15;2.80;56.40
43991;DHT22;29654;50.784;20.604;2022-11-20T08:24:18;2.90;56.50
43991;DHT22;29654;50.784;20.604;2022-11-20T08:29:23;3.00;56.40
43991;DHT22;29654;50.784;20.604;2022-11-20T08:34:25;3.10;56.50
43991;DHT22;29654;50.784;20.604;2022-11-20T08:39:28;3.20;56.50
43991;DHT22;29654;50.784;20.604;2022-11-20T08:44:32;3.40;56.50
43991;DHT22;29654;50.784;20.604;2022-11-20T08:49:35;3.50;56.50
43991;DHT22;29654;50.784;20.604;2022-11-20T08:54:38;3.60;56.40
43991;DHT22;29654;50.784;20.604;2022-11-20T08:59:42;3.70;56.80
43991;DHT22;29654;50.784;20.604;2022-11-20T09:04:45;3.80;56.30
43991;DHT22;29654;50.784;20.604;2022-11-20T09:09:48;3.90;56.10
43991;DHT22;29654;50.784;20.604;2022-11-20T09:14:53;3.90;56.00
43991;DHT22;29654;50.784;20.604;2022-11-20T09:19:56;3.90;56.20
43991;DHT22;29654;50.784;20.604;2022-11-20T09:24:59;4.00;56.80
43991;DHT22;29654;50.784;20.604;2022-11-20T09:30:04;4.00;56.10
43991;DHT22;29654;50.784;20.604;2022-11-20T09:35:08;4.00;56.20
43991;DHT22;29654;50.784;20.604;2022-11-20T09:40:19;4.10;56.40
43991;DHT22;29654;50.784;20.604;2022-11-20T09:45:35;4.20;56.50
43991;DHT22;29654;50.784;20.604;2022-11-20T09:50:45;4.30;56.40
43991;DHT22;29654;50.784;20.604;2022-11-20T09:55:51;4.40;56.40
43991;DHT22;29654;50.784;20.604;2022-11-20T10:00:57;4.40;56.40
43991;DHT22;29654;50.784;20.604;2022-11-20T10:06:10;4.60;56.40
43991;DHT22;29654;50.784;20.604;2022-11-20T10:11:21;4.70;56.20
43991;DHT22;29654;50.784;20.604;2022-11-20T10:16:40;4.90;56.20
43991;DHT22;29654;50.784;20.604;2022-11-20T10:21:55;5.00;56.20
43991;DHT22;29654;50.784;20.604;2022-11-20T10:27:15;5.20;56.30
43991;DHT22;29654;50.784;20.604;2022-11-20T10:32:43;5.40;56.10
43991;DHT22;29654;50.784;20.604;2022-11-20T10:37:49;5.50;56.70
43991;DHT22;29654;50.784;20.604;2022-11-20T10:42:57;5.60;55.90
43991;DHT22;29654;50.784;20.604;2022-11-20T10:48:12;5.70;55.80
43991;DHT22;29654;50.784;20.604;2022-11-20T10:53:28;5.80;55.60
43991;DHT22;29654;50.784;20.604;2022-11-20T10:58:45;5.80;55.20
43991;DHT22;29654;50.784;20.604;2022-11-20T11:03:57;5.70;55.30
43991;DHT22;29654;50.784;20.604;2022-11-20T11:09:04;5.70;55.30
43991;DHT22;29654;50.784;20.604;2022-11-20T11:14:14;5.70;55.40
43991;DHT22;29654;50.784;20.604;2022-11-20T11:19:19;5.70;55.60
43991;DHT22;29654;50.784;20.604;2022-11-20T11:24:22;5.80;55.70
43991;DHT22;29654;50.784;20.604;2022-11-20T11:29:26;5.80;55.70
43991;DHT22;29654;50.784;20.604;2022-11-20T11:34:33;5.90;55.60
43991;DHT22;29654;50.784;20.604;2022-11-20T11:39:36;6.00;55.60
43991;DHT22;29654;50.784;20.604;2022-11-20T11:44:45;6.10;55.50
43991;DHT22;29654;50.784;20.604;2022-11-20T11:50:17;6.10;55.40
43991;DHT22;29654;50.784;20.604;2022-11-20T11:55:29;6.20;55.20
43991;DHT22;29654;50.784;20.604;2022-11-20T12:00:35;6.20;55.20
43991;DHT22;29654;50.784;20.604;2022-11-20T12:05:45;6.30;55.30
43991;DHT22;29654;50.784;20.604;2022-11-20T12:10:56;6.30;55.20
43991;DHT22;29654;50.784;20.604;2022-11-20T12:16:01;6.30;55.10
43991;DHT22;29654;50.784;20.604;2022-11-20T12:21:17;6.40;55.20
43991;DHT22;29654;50.784;20.604;2022-11-20T12:26:33;6.40;55.00
43991;DHT22;29654;50.784;20.604;2022-11-20T12:32:01;6.50;55.00
43991;DHT22;29654;50.784;20.604;2022-11-20T12:37:31;6.50;55.00
43991;DHT22;29654;50.784;20.604;2022-11-20T12:42:49;6.50;54.70
43991;DHT22;29654;50.784;20.604;2022-11-20T12:48:25;6.50;54.70
43991;DHT22;29654;50.784;20.604;2022-11-20T12:53:44;6.50;54.60
43991;DHT22;29654;50.784;20.604;2022-11-20T12:59:02;6.40;54.50
43991;DHT22;29654;50.784;20.604;2022-11-20T13:04:30;6.40;54.60
43991;DHT22;29654;50.784;20.604;2022-11-20T13:09:45;6.30;54.60
43991;DHT22;29654;50.784;20.604;2022-11-20T13:14:54;6.30;54.70
43991;DHT22;29654;50.784;20.604;2022-11-20T13:20:04;6.30;54.80
43991;DHT22;29654;50.784;20.604;2022-11-20T13:25:21;6.30;54.90
43991;DHT22;29654;50.784;20.604;2022-11-20T13:30:26;6.30;54.90
43991;DHT22;29654;50.784;20.604;2022-11-20T13:35:31;6.30;55.60
43991;DHT22;29654;50.784;20.604;2022-11-20T13:40:39;6.40;55.00
43991;DHT22;29654;50.784;20.604;2022-11-20T13:46:00;6.40;54.90
43991;DHT22;29654;50.784;20.604;2022-11-20T13:51:13;6.40;54.80
43991;DHT22;29654;50.784;20.604;2022-11-20T13:56:26;6.40;54.80
43991;DHT22;29654;50.784;20.604;2022-11-20T14:01:37;6.30;54.70
43991;DHT22;29654;50.784;20.604;2022-11-20T14:06:42;6.20;54.70
43991;DHT22;29654;50.784;20.604;2022-11-20T14:11:48;6.10;54.90
43991;DHT22;29654;50.784;20.604;2022-11-20T14:16:50;6.10;55.00
43991;DHT22;29654;50.784;20.604;2022-11-20T14:22:06;6.00;55.10
43991;DHT22;29654;50.784;20.604;2022-11-20T14:27:14;6.00;55.10
43991;DHT22;29654;50.784;20.604;2022-11-20T14:32:21;5.90;55.20
43991;DHT22;29654;50.784;20.604;2022-11-20T14:37:27;5.70;55.00
43991;DHT22;29654;50.784;20.604;2022-11-20T14:42:35;5.60;55.00
43991;DHT22;29654;50.784;20.604;2022-11-20T14:47:38;5.50;55.10
43991;DHT22;29654;50.784;20.604;2022-11-20T14:52:50;5.50;55.30
43991;DHT22;29654;50.784;20.604;2022-11-20T14:58:21;5.40;55.50
43991;DHT22;29654;50.784;20.604;2022-11-20T15:03:31;5.40;55.50
43991;DHT22;29654;50.784;20.604;2022-11-20T15:08:35;5.30;55.50
43991;DHT22;29654;50.784;20.604;2022-11-20T15:13:39;5.30;55.50
43991;DHT22;29654;50.784;20.604;2022-11-20T15:18:42;5.30;55.60
43991;DHT22;29654;50.784;20.604;2022-11-20T15:23:44;5.20;55.60
43991;DHT22;29654;50.784;20.604;2022-11-20T15:28:50;5.20;55.90
43991;DHT22;29654;50.784;20.604;2022-11-20T15:33:53;5.10;55.90
43991;DHT22;29654;50.784;20.604;2022-11-20T15:38:55;5.20;56.00
43991;DHT22;29654;50.784;20.604;2022-11-20T15:43:59;5.10;55.90
43991;DHT22;29654;50.784;20.604;2022-11-20T15:49:02;5.10;55.90
43991;DHT22;29654;50.784;20.604;2022-11-20T15:54:11;5.10;55.90
43991;DHT22;29654;50.784;20.604;2022-11-20T15:59:16;5.00;56.00
43991;DHT22;29654;50.784;20.604;2022-11-20T16:04:18;5.10;56.20
43991;DHT22;29654;50.784;20.604;2022-11-20T16:09:21;5.10;56.10
43991;DHT22;29654;50.784;20.604;2022-11-20T16:14:25;5.00;56.10
43991;DHT22;29654;50.784;20.604;2022-11-20T16:19:46;5.00;56.30
43991;DHT22;29654;50.784;20.604;2022-11-20T16:24:48;5.00;56.30
43991;DHT22;29654;50.784;20.604;2022-11-20T16:29:53;5.00;56.30
43991;DHT22;29654;50.784;20.604;2022-11-20T16:34:55;5.00;56.30
43991;DHT22;29654;50.784;20.604;2022-11-20T16:39:58;5.00;56.20
43991;DHT22;29654;50.784;20.604;2022-11-20T16:45:03;4.90;56.10
43991;DHT22;29654;50.784;20.604;2022-11-20T16:50:06;4.90;56.10
43991;DHT22;29654;50.784;20.604;2022-11-20T16:55:10;4.90;56.10
43991;DHT22;29654;50.784;20.604;2022-11-20T17:00:15;4.80;56.10
43991;DHT22;29654;50.784;20.604;2022-11-20T17:05:17;4.80;56.30
43991;DHT22;29654;50.784;20.604;2022-11-20T17:10:20;4.80;56.50
43991;DHT22;29654;50.784;20.604;2022-11-20T17:15:25;4.90;56.70
43991;DHT22;29654;50.784;20.604;2022-11-20T17:20:28;4.90;56.70
43991;DHT22;29654;50.784;20.604;2022-11-20T17:25:32;5.00;56.80
43991;DHT22;29654;50.784;20.604;2022-11-20T17:30:36;5.10;56.80
43991;DHT22;29654;50.784;20.604;2022-11-20T17:35:39;5.20;57.00
43991;DHT22;29654;50.784;20.604;2022-11-20T17:40:42;5.40;57.00
43991;DHT22;29654;50.784;20.604;2022-11-20T17:45:47;5.50;56.80
43991;DHT22;29654;50.784;20.604;2022-11-20T17:50:50;5.60;56.60
43991;DHT22;29654;50.784;20.604;2022-11-20T17:55:56;5.60;56.60
43991;DHT22;29654;50.784;20.604;2022-11-20T18:01:18;5.70;56.50
43991;DHT22;29654;50.784;20.604;2022-11-20T18:06:23;5.70;56.40
43991;DHT22;29654;50.784;20.604;2022-11-20T18:11:28;5.80;56.30
43991;DHT22;29654;50.784;20.604;2022-11-20T18:16:36;5.80;56.30
43991;DHT22;29654;50.784;20.604;2022-11-20T18:21:42;5.80;56.30
43991;DHT22;29654;50.784;20.604;2022-11-20T18:26:48;5.80;56.30
43991;DHT22;29654;50.784;20.604;2022-11-20T18:31:54;5.90;56.40
43991;DHT22;29654;50.784;20.604;2022-11-20T18:36:57;5.90;56.30
43991;DHT22;29654;50.784;20.604;2022-11-20T18:41:59;5.90;56.30
43991;DHT22;29654;50.784;20.604;2022-11-20T18:47:23;5.90;56.30
43991;DHT22;29654;50.784;20.604;2022-11-20T18:52:29;6.00;56.30
43991;DHT22;29654;50.784;20.604;2022-11-20T18:57:33;6.00;56.30
43991;DHT22;29654;50.784;20.604;2022-11-20T19:02:37;6.00;56.30
43991;DHT22;29654;50.784;20.604;2022-11-20T19:07:41;6.00;56.30
43991;DHT22;29654;50.784;20.604;2022-11-20T19:12:44;6.10;57.00
43991;DHT22;29654;50.784;20.604;2022-11-20T19:17:48;6.10;56.30
43991;DHT22;29654;50.784;20.604;2022-11-20T19:22:51;6.10;56.40
43991;DHT22;29654;50.784;20.604;2022-11-20T19:27:54;6.20;56.40
43991;DHT22;29654;50.784;20.604;2022-11-20T19:32:58;6.20;56.50
43991;DHT22;29654;50.784;20.604;2022-11-20T19:38:01;6.30;56.50
43991;DHT22;29654;50.784;20.604;2022-11-20T19:43:05;6.30;56.50
43991;DHT22;29654;50.784;20.604;2022-11-20T19:48:13;6.30;56.50
43991;DHT22;29654;50.784;20.604;2022-11-20T19:53:21;6.40;56.50
43991;DHT22;29654;50.784;20.604;2022-11-20T19:58:23;6.40;56.40
43991;DHT22;29654;50.784;20.604;2022-11-20T20:03:28;6.40;56.40
43991;DHT22;29654;50.784;20.604;2022-11-20T20:08:33;6.50;56.40
43991;DHT22;29654;50.784;20.604;2022-11-20T20:13:36;6.50;56.50
43991;DHT22;29654;50.784;20.604;2022-11-20T20:18:40;6.60;56.50
43991;DHT22;29654;50.784;20.604;2022-11-20T20:23:43;6.60;56.50
43991;DHT22;29654;50.784;20.604;2022-11-20T20:28:47;6.70;56.50
43991;DHT22;29654;50.784;20.604;2022-11-20T20:33:52;6.70;56.50
43991;DHT22;29654;50.784;20.604;2022-11-20T20:38:56;6.80;56.40
43991;DHT22;29654;50.784;20.604;2022-11-20T20:44:02;6.80;56.30
43991;DHT22;29654;50.784;20.604;2022-11-20T20:49:24;6.80;56.30
43991;DHT22;29654;50.784;20.604;2022-11-20T20:54:26;6.80;56.30
43991;DHT22;29654;50.784;20.604;2022-11-20T20:59:29;6.80;56.30
43991;DHT22;29654;50.784;20.604;2022-11-20T21:04:35;6.80;56.30
43991;DHT22;29654;50.784;20.604;2022-11-20T21:09:39;6.90;56.40
43991;DHT22;29654;50.784;20.604;2022-11-20T21:14:42;6.90;56.20
43991;DHT22;29654;50.784;20.604;2022-11-20T21:19:46;6.90;56.20
43991;DHT22;29654;50.784;20.604;2022-11-20T21:24:51;6.90;56.40
43991;DHT22;29654;50.784;20.604;2022-11-20T21:29:54;6.90;55.90
43991;DHT22;29654;50.784;20.604;2022-11-20T21:34:58;6.90;55.90
43991;DHT22;29654;50.784;20.604;2022-11-20T21:40:01;6.80;55.80
43991;DHT22;29654;50.784;20.604;2022-11-20T21:45:05;6.70;55.60
43991;DHT22;29654;50.784;20.604;2022-11-20T21:50:11;6.70;55.50
43991;DHT22;29654;50.784;20.604;2022-11-20T21:55:17;6.60;55.40
43991;DHT22;29654;50.784;20.604;2022-11-20T22:00:23;6.50;55.30
43991;DHT22;29654;50.784;20.604;2022-11-20T22:05:33;6.40;55.30
43991;DHT22;29654;50.784;20.604;2022-11-20T22:10:40;6.30;55.70
43991;DHT22;29654;50.784;20.604;2022-11-20T22:15:46;6.20;55.80
43991;DHT22;29654;50.784;20.604;2022-11-20T22:20:55;6.20;55.90
43991;DHT22;29654;50.784;20.604;2022-11-20T22:26:02;6.20;56.20
43991;DHT22;29654;50.784;20.604;2022-11-20T22:31:10;6.20;56.40
43991;DHT22;29654;50.784;20.604;2022-11-20T22:36:19;6.20;56.50
43991;DHT22;29654;50.784;20.604;2022-11-20T22:41:26;6.20;56.70
43991;DHT22;29654;50.784;20.604;2022-11-20T22:46:32;6.30;56.70
43991;DHT22;29654;50.784;20.604;2022-11-20T22:51:38;6.40;56.80
43991;DHT22;29654;50.784;20.604;2022-11-20T22:56:42;6.40;56.80
43991;DHT22;29654;50.784;20.604;2022-11-20T23:01:45;6.50;56.70
43991;DHT22;29654;50.784;20.604;2022-11-20T23:06:49;6.50;56.70
43991;DHT22;29654;50.784;20.604;2022-11-20T23:11:52;6.60;56.70
43991;DHT22;29654;50.784;20.604;2022-11-20T23:16:54;6.60;56.60
43991;DHT22;29654;50.784;20.604;2022-11-20T23:21:59;6.60;56.60
43991;DHT22;29654;50.784;20.604;2022-11-20T23:27:01;6.70;56.60
43991;DHT22;29654;50.784;20.604;2022-11-20T23:32:04;6.70;56.70
43991;DHT22;29654;50.784;20.604;2022-11-20T23:37:08;6.80;56.70
43991;DHT22;29654;50.784;20.604;2022-11-20T23:42:10;6.80;56.70
43991;DHT22;29654;50.784;20.604;2022-11-20T23:47:14;6.90;56.70
43991;DHT22;29654;50.784;20.604;2022-11-20T23:52:19;6.90;56.60
43991;DHT22;29654;50.784;20.604;2022-11-20T23:57:26;6.90;56.60
